sensor_id;sensor_type;location;lat;lon;timestamp;temperature;humidity
55121;DHT22;41019;48.512;9.036;2023-07-09T00:00:43;21.20;88.60
55121;DHT22;41019;48.512;9.036;2023-07-09T00:03:11;21.20;89.10
55121;DHT22;41019;48.512;9.036;2023-07-09T00:05:37;21.20;89.30
55121;DHT22;41019;48.512;9.036;2023-07-09T00:08:03;21.10;89.90
55121;DHT22;41019;48.512;9.036;2023-07-09T00:10:29;21.10;89.80
55121;DHT22;41019;48.512;9.036;2023-07-09T00:12:55;21.00;89.90
55121;DHT22;41019;48.512;9.036;2023-07-09T00:15:21;21.00;90.10
55121;DHT22;41019;48.512;9.036;2023-07-09T00:17:48;20.90;90.10
55121;DHT22;41019;48.512;9.036;2023-07-09T00:20:16;20.90;90.10
55121;DHT22;41019;48.512;9.036;2023-07-09T00:22:44;20.90;90.20
55121;DHT22;41019;48.512;9.036;2023-07-09T00:25:21;20.90;90.10
55121;DHT22;41019;48.512;9.036;2023-07-09T00:27:47;20.80;90.30
55121;DHT22;41019;48.512;9.036;2023-07-09T00:30:21;20.80;90.30
55121;DHT22;41019;48.512;9.036;2023-07-09T00:32:51;20.70;90.80
55121;DHT22;41019;48.512;9.036;2023-07-09T00:35:19;20.70;90.80
55121;DHT22;41019;48.512;9.036;2023-07-09T00:37:46;20.60;91.00
55121;DHT22;41019;48.512;9.036;2023-07-09T00:40:20;20.60;91.10
55121;DHT22;41019;48.512;9.036;2023-07-09T00:42:55;20.50;91.10
55121;DHT22;41019;48.512;9.036;2023-07-09T00:45:24;20.50;91.30
55121;DHT22;41019;48.512;9.036;2023-07-09T00:47:57;20.40;91.70
55121;DHT22;41019;48.512;9.036;2023-07-09T00:50:37;20.40;91.50
55121;DHT22;41019;48.512;9.036;2023-07-09T00:53:20;20.40;91.40
55121;DHT22;41019;48.512;9.036;2023-07-09T00:56:02;20.30;91.50
55121;DHT22;41019;48.512;9.036;2023-07-09T00:58:31;20.30;91.50
55121;DHT22;41019;48.512;9.036;2023-07-09T01:01:04;20.20;91.50
55121;DHT22;41019;48.512;9.036;2023-07-09T01:03:39;20.20;92.10
55121;DHT22;41019;48.512;9.036;2023-07-09T01:06:09;20.20;92.50
55121;DHT22;41019;48.512;9.036;2023-07-09T01:08:39;20.10;92.30
55121;DHT22;41019;48.512;9.036;2023-07-09T01:11:18;20.10;92.30
55121;DHT22;41019;48.512;9.036;2023-07-09T01:13:55;20.10;92.30
55121;DHT22;41019;48.512;9.036;2023-07-09T01:16:26;20.10;92.50
55121;DHT22;41019;48.512;9.036;2023-07-09T01:18:53;20.00;92.30
55121;DHT22;41019;48.512;9.036;2023-07-09T01:21:19;20.00;92.10
55121;DHT22;41019;48.512;9.036;2023-07-09T01:23:47;20.00;91.90
55121;DHT22;41019;48.512;9.036;2023-07-09T01:26:18;19.90;91.60
55121;DHT22;41019;48.512;9.036;2023-07-09T01:28:45;19.90;91.70
55121;DHT22;41019;48.512;9.036;2023-07-09T01:31:13;19.90;91.40
55121;DHT22;41019;48.512;9.036;2023-07-09T01:33:41;19.90;91.80
55121;DHT22;41019;48.512;9.036;2023-07-09T01:36:13;19.90;91.90
55121;DHT22;41019;48.512;9.036;2023-07-09T01:38:40;19.80;92.10
55121;DHT22;41019;48.512;9.036;2023-07-09T01:41:06;19.80;91.90
55121;DHT22;41019;48.512;9.036;2023-07-09T01:43:33;19.80;92.10
55121;DHT22;41019;48.512;9.036;2023-07-09T01:45:59;19.70;92.20
55121;DHT22;41019;48.512;9.036;2023-07-09T01:48:26;19.70;92.80
55121;DHT22;41019;48.512;9.036;2023-07-09T01:50:53;19.70;93.20
55121;DHT22;41019;48.512;9.036;2023-07-09T01:53:24;19.60;93.30
55121;DHT22;41019;48.512;9.036;2023-07-09T01:55:52;19.60;93.50
55121;DHT22;41019;48.512;9.036;2023-07-09T01:58:20;19.60;93.40
55121;DHT22;41019;48.512;9.036;2023-07-09T02:00:51;19.50;93.40
55121;DHT22;41019;48.512;9.036;2023-07-09T02:03:17;19.50;93.50
55121;DHT22;41019;48.512;9.036;2023-07-09T02:05:43;19.50;93.40
55121;DHT22;41019;48.512;9.036;2023-07-09T02:08:09;19.40;93.40
55121;DHT22;41019;48.512;9.036;2023-07-09T02:10:43;19.40;93.60
55121;DHT22;41019;48.512;9.036;2023-07-09T02:13:09;19.40;93.80
55121;DHT22;41019;48.512;9.036;2023-07-09T02:15:35;19.30;94.10
55121;DHT22;41019;48.512;9.036;2023-07-09T02:18:02;19.30;94.10
55121;DHT22;41019;48.512;9.036;2023-07-09T02:20:28;19.20;94.00
55121;DHT22;41019;48.512;9.036;2023-07-09T02:22:54;19.20;94.10
55121;DHT22;41019;48.512;9.036;2023-07-09T02:25:21;19.20;94.10
55121;DHT22;41019;48.512;9.036;2023-07-09T02:27:47;19.10;94.00
55121;DHT22;41019;48.512;9.036;2023-07-09T02:30:13;19.10;94.10
55121;DHT22;41019;48.512;9.036;2023-07-09T02:32:39;19.10;94.40
55121;DHT22;41019;48.512;9.036;2023-07-09T02:35:07;19.10;94.60
55121;DHT22;41019;48.512;9.036;2023-07-09T02:37:33;19.00;94.80
55121;DHT22;41019;48.512;9.036;2023-07-09T02:40:00;19.00;94.80
55121;DHT22;41019;48.512;9.036;2023-07-09T02:42:25;18.90;94.70
55121;DHT22;41019;48.512;9.036;2023-07-09T02:44:51;18.90;94.70
55121;DHT22;41019;48.512;9.036;2023-07-09T02:47:18;18.90;94.80
55121;DHT22;41019;48.512;9.036;2023-07-09T02:49:45;18.80;95.00
55121;DHT22;41019;48.512;9.036;2023-07-09T02:52:11;18.80;95.10
55121;DHT22;41019;48.512;9.036;2023-07-09T02:54:38;18.70;95.00
55121;DHT22;41019;48.512;9.036;2023-07-09T02:57:04;18.70;95.20
55121;DHT22;41019;48.512;9.036;2023-07-09T02:59:30;18.70;95.10
55121;DHT22;41019;48.512;9.036;2023-07-09T03:01:57;18.70;95.00
55121;DHT22;41019;48.512;9.036;2023-07-09T03:04:23;18.60;95.40
55121;DHT22;41019;48.512;9.036;2023-07-09T03:06:49;18.60;95.10
55121;DHT22;41019;48.512;9.036;2023-07-09T03:09:15;18.60;95.20
55121;DHT22;41019;48.512;9.036;2023-07-09T03:11:41;18.60;95.40
55121;DHT22;41019;48.512;9.036;2023-07-09T03:14:08;18.50;95.50
55121;DHT22;41019;48.512;9.036;2023-07-09T03:16:34;18.50;95.60
55121;DHT22;41019;48.512;9.036;2023-07-09T03:19:02;18.50;95.70
55121;DHT22;41019;48.512;9.036;2023-07-09T03:21:29;18.40;95.70
55121;DHT22;41019;48.512;9.036;2023-07-09T03:23:55;18.40;95.90
55121;DHT22;41019;48.512;9.036;2023-07-09T03:26:21;18.40;95.80
55121;DHT22;41019;48.512;9.036;2023-07-09T03:28:47;18.40;95.90
55121;DHT22;41019;48.512;9.036;2023-07-09T03:31:15;18.40;96.20
55121;DHT22;41019;48.512;9.036;2023-07-09T03:33:41;18.30;96.10
55121;DHT22;41019;48.512;9.036;2023-07-09T03:36:07;18.30;95.80
55121;DHT22;41019;48.512;9.036;2023-07-09T03:38:33;18.30;95.90
55121;DHT22;41019;48.512;9.036;2023-07-09T03:40:59;18.30;96.00
55121;DHT22;41019;48.512;9.036;2023-07-09T03:43:25;18.30;95.90
55121;DHT22;41019;48.512;9.036;2023-07-09T03:45:51;18.30;96.10
55121;DHT22;41019;48.512;9.036;2023-07-09T03:48:18;18.30;96.30
55121;DHT22;41019;48.512;9.036;2023-07-09T03:50:46;18.20;96.40
55121;DHT22;41019;48.512;9.036;2023-07-09T03:53:14;18.20;96.50
55121;DHT22;41019;48.512;9.036;2023-07-09T03:55:40;18.20;96.70
55121;DHT22;41019;48.512;9.036;2023-07-09T03:58:07;18.20;96.70
55121;DHT22;41019;48.512;9.036;2023-07-09T04:00:33;18.20;96.50
55121;DHT22;41019;48.512;9.036;2023-07-09T04:03:00;18.20;96.60
55121;DHT22;41019;48.512;9.036;2023-07-09T04:05:27;18.20;96.50
55121;DHT22;41019;48.512;9.036;2023-07-09T04:07:54;18.30;96.60
55121;DHT22;41019;48.512;9.036;2023-07-09T04:10:20;18.30;96.60
55121;DHT22;41019;48.512;9.036;2023-07-09T04:12:46;18.20;96.50
55121;DHT22;41019;48.512;9.036;2023-07-09T04:15:12;18.30;96.50
55121;DHT22;41019;48.512;9.036;2023-07-09T04:17:40;18.30;96.70
55121;DHT22;41019;48.512;9.036;2023-07-09T04:20:08;18.30;96.70
55121;DHT22;41019;48.512;9.036;2023-07-09T04:22:35;18.30;96.70
55121;DHT22;41019;48.512;9.036;2023-07-09T04:25:02;18.30;96.70
55121;DHT22;41019;48.512;9.036;2023-07-09T04:27:29;18.40;96.80
55121;DHT22;41019;48.512;9.036;2023-07-09T04:29:55;18.40;96.70
55121;DHT22;41019;48.512;9.036;2023-07-09T04:32:21;18.40;96.60
55121;DHT22;41019;48.512;9.036;2023-07-09T04:34:47;18.40;96.40
55121;DHT22;41019;48.512;9.036;2023-07-09T04:37:14;18.40;96.20
55121;DHT22;41019;48.512;9.036;2023-07-09T04:39:43;18.50;96.20
55121;DHT22;41019;48.512;9.036;2023-07-09T04:42:12;18.50;96.20
55121;DHT22;41019;48.512;9.036;2023-07-09T04:44:39;18.50;96.40
55121;DHT22;41019;48.512;9.036;2023-07-09T04:47:05;18.50;96.20
55121;DHT22;41019;48.512;9.036;2023-07-09T04:49:31;18.60;96.10
55121;DHT22;41019;48.512;9.036;2023-07-09T04:51:59;18.60;96.10
55121;DHT22;41019;48.512;9.036;2023-07-09T04:54:25;18.70;96.10
55121;DHT22;41019;48.512;9.036;2023-07-09T04:56:51;18.70;96.00
55121;DHT22;41019;48.512;9.036;2023-07-09T04:59:19;18.70;95.90
55121;DHT22;41019;48.512;9.036;2023-07-09T05:01:45;18.70;95.70
55121;DHT22;41019;48.512;9.036;2023-07-09T05:04:11;18.80;95.80
55121;DHT22;41019;48.512;9.036;2023-07-09T05:06:37;18.80;95.80
55121;DHT22;41019;48.512;9.036;2023-07-09T05:09:04;18.80;95.80
55121;DHT22;41019;48.512;9.036;2023-07-09T05:11:35;18.80;95.80
55121;DHT22;41019;48.512;9.036;2023-07-09T05:14:02;18.90;95.90
55121;DHT22;41019;48.512;9.036;2023-07-09T05:16:28;18.90;95.90
55121;DHT22;41019;48.512;9.036;2023-07-09T05:18:54;19.00;95.80
55121;DHT22;41019;48.512;9.036;2023-07-09T05:21:20;19.10;95.80
55121;DHT22;41019;48.512;9.036;2023-07-09T05:23:46;19.10;95.90
55121;DHT22;41019;48.512;9.036;2023-07-09T05:26:12;19.10;96.00
55121;DHT22;41019;48.512;9.036;2023-07-09T05:28:38;19.20;95.90
55121;DHT22;41019;48.512;9.036;2023-07-09T05:31:04;19.30;96.20
55121;DHT22;41019;48.512;9.036;2023-07-09T05:33:31;19.30;96.00
55121;DHT22;41019;48.512;9.036;2023-07-09T05:35:57;19.40;95.70
55121;DHT22;41019;48.512;9.036;2023-07-09T05:38:23;19.50;95.60
55121;DHT22;41019;48.512;9.036;2023-07-09T05:40:58;19.60;95.50
55121;DHT22;41019;48.512;9.036;2023-07-09T05:43:24;19.60;95.20
55121;DHT22;41019;48.512;9.036;2023-07-09T05:45:50;19.70;95.20
55121;DHT22;41019;48.512;9.036;2023-07-09T05:48:16;19.80;95.10
55121;DHT22;41019;48.512;9.036;2023-07-09T05:50:42;19.80;94.80
55121;DHT22;41019;48.512;9.036;2023-07-09T05:53:08;20.00;94.70
55121;DHT22;41019;48.512;9.036;2023-07-09T05:55:33;20.00;94.50
55121;DHT22;41019;48.512;9.036;2023-07-09T05:57:59;20.10;94.50
55121;DHT22;41019;48.512;9.036;2023-07-09T06:00:25;20.20;94.50
55121;DHT22;41019;48.512;9.036;2023-07-09T06:02:51;20.20;94.40
55121;DHT22;41019;48.512;9.036;2023-07-09T06:05:17;20.30;94.20
55121;DHT22;41019;48.512;9.036;2023-07-09T06:07:42;20.50;94.10
55121;DHT22;41019;48.512;9.036;2023-07-09T06:10:09;20.60;93.80
55121;DHT22;41019;48.512;9.036;2023-07-09T06:12:35;20.60;93.50
55121;DHT22;41019;48.512;9.036;2023-07-09T06:15:02;20.80;93.50
55121;DHT22;41019;48.512;9.036;2023-07-09T06:17:28;20.90;93.40
55121;DHT22;41019;48.512;9.036;2023-07-09T06:19:54;21.00;93.10
55121;DHT22;41019;48.512;9.036;2023-07-09T06:22:20;21.10;93.00
55121;DHT22;41019;48.512;9.036;2023-07-09T06:24:46;21.30;92.90
55121;DHT22;41019;48.512;9.036;2023-07-09T06:27:12;21.40;92.80
55121;DHT22;41019;48.512;9.036;2023-07-09T06:29:38;21.50;92.40
55121;DHT22;41019;48.512;9.036;2023-07-09T06:32:04;21.70;92.00
55121;DHT22;41019;48.512;9.036;2023-07-09T06:34:31;21.80;91.70
55121;DHT22;41019;48.512;9.036;2023-07-09T06:36:57;22.00;91.40
55121;DHT22;41019;48.512;9.036;2023-07-09T06:39:23;22.10;91.00
55121;DHT22;41019;48.512;9.036;2023-07-09T06:41:51;22.30;90.40
55121;DHT22;41019;48.512;9.036;2023-07-09T06:44:46;22.50;90.00
55121;DHT22;41019;48.512;9.036;2023-07-09T06:47:12;22.70;88.90
55121;DHT22;41019;48.512;9.036;2023-07-09T06:49:38;22.90;88.30
55121;DHT22;41019;48.512;9.036;2023-07-09T06:52:04;23.10;86.90
55121;DHT22;41019;48.512;9.036;2023-07-09T06:54:30;23.40;86.60
55121;DHT22;41019;48.512;9.036;2023-07-09T06:56:56;23.60;85.40
55121;DHT22;41019;48.512;9.036;2023-07-09T06:59:22;23.90;84.80
55121;DHT22;41019;48.512;9.036;2023-07-09T07:01:47;24.10;83.70
55121;DHT22;41019;48.512;9.036;2023-07-09T07:04:13;24.30;82.80
55121;DHT22;41019;48.512;9.036;2023-07-09T07:06:39;24.50;81.90
55121;DHT22;41019;48.512;9.036;2023-07-09T07:09:04;24.70;81.00
55121;DHT22;41019;48.512;9.036;2023-07-09T07:11:30;24.90;80.00
55121;DHT22;41019;48.512;9.036;2023-07-09T07:13:56;25.20;79.30
55121;DHT22;41019;48.512;9.036;2023-07-09T07:16:23;25.30;78.70
55121;DHT22;41019;48.512;9.036;2023-07-09T07:18:49;25.50;78.10
55121;DHT22;41019;48.512;9.036;2023-07-09T07:21:15;25.80;77.50
55121;DHT22;41019;48.512;9.036;2023-07-09T07:23:41;26.10;77.10
55121;DHT22;41019;48.512;9.036;2023-07-09T07:26:07;26.30;76.10
55121;DHT22;41019;48.512;9.036;2023-07-09T07:28:35;26.40;75.20
55121;DHT22;41019;48.512;9.036;2023-07-09T07:31:05;26.60;75.00
55121;DHT22;41019;48.512;9.036;2023-07-09T07:33:31;26.80;73.80
55121;DHT22;41019;48.512;9.036;2023-07-09T07:35:57;27.00;73.00
55121;DHT22;41019;48.512;9.036;2023-07-09T07:38:22;27.30;72.70
55121;DHT22;41019;48.512;9.036;2023-07-09T07:40:48;27.50;72.20
55121;DHT22;41019;48.512;9.036;2023-07-09T07:43:14;27.70;71.40
55121;DHT22;41019;48.512;9.036;2023-07-09T07:45:41;27.90;70.80
55121;DHT22;41019;48.512;9.036;2023-07-09T07:48:07;28.20;70.40
55121;DHT22;41019;48.512;9.036;2023-07-09T07:50:33;28.30;70.10
55121;DHT22;41019;48.512;9.036;2023-07-09T07:52:59;28.50;69.20
55121;DHT22;41019;48.512;9.036;2023-07-09T07:55:24;28.70;69.00
55121;DHT22;41019;48.512;9.036;2023-07-09T07:57:50;28.80;67.60
55121;DHT22;41019;48.512;9.036;2023-07-09T08:00:16;29.00;66.90
55121;DHT22;41019;48.512;9.036;2023-07-09T08:02:42;29.20;66.40
55121;DHT22;41019;48.512;9.036;2023-07-09T08:05:08;29.40;66.10
55121;DHT22;41019;48.512;9.036;2023-07-09T08:07:34;29.60;66.50
55121;DHT22;41019;48.512;9.036;2023-07-09T08:10:00;29.90;65.90
55121;DHT22;41019;48.512;9.036;2023-07-09T08:12:25;30.10;65.10
55121;DHT22;41019;48.512;9.036;2023-07-09T08:14:51;30.30;66.00
55121;DHT22;41019;48.512;9.036;2023-07-09T08:17:17;30.50;63.40
55121;DHT22;41019;48.512;9.036;2023-07-09T08:19:47;30.70;62.60
55121;DHT22;41019;48.512;9.036;2023-07-09T08:22:15;30.90;62.70
55121;DHT22;41019;48.512;9.036;2023-07-09T08:24:42;31.10;62.70
55121;DHT22;41019;48.512;9.036;2023-07-09T08:27:08;31.20;61.10
55121;DHT22;41019;48.512;9.036;2023-07-09T08:29:35;31.40;61.20
55121;DHT22;41019;48.512;9.036;2023-07-09T08:32:02;31.70;60.10
55121;DHT22;41019;48.512;9.036;2023-07-09T08:34:28;31.70;60.20
55121;DHT22;41019;48.512;9.036;2023-07-09T08:36:54;31.90;60.10
55121;DHT22;41019;48.512;9.036;2023-07-09T08:39:20;32.10;59.40
55121;DHT22;41019;48.512;9.036;2023-07-09T08:44:44;32.60;58.70
55121;DHT22;41019;48.512;9.036;2023-07-09T08:50:15;33.00;57.20
55121;DHT22;41019;48.512;9.036;2023-07-09T08:52:47;33.30;57.20
55121;DHT22;41019;48.512;9.036;2023-07-09T08:55:28;33.50;55.80
55121;DHT22;41019;48.512;9.036;2023-07-09T08:57:59;33.70;55.90
55121;DHT22;41019;48.512;9.036;2023-07-09T09:00:33;33.70;54.40
55121;DHT22;41019;48.512;9.036;2023-07-09T09:03:12;34.10;53.20
55121;DHT22;41019;48.512;9.036;2023-07-09T09:05:43;34.30;50.90
55121;DHT22;41019;48.512;9.036;2023-07-09T09:11:20;34.60;48.30
55121;DHT22;41019;48.512;9.036;2023-07-09T09:13:55;34.80;48.50
55121;DHT22;41019;48.512;9.036;2023-07-09T09:16:35;35.00;47.90
55121;DHT22;41019;48.512;9.036;2023-07-09T09:19:32;35.20;47.00
55121;DHT22;41019;48.512;9.036;2023-07-09T09:22:09;35.30;47.60
55121;DHT22;41019;48.512;9.036;2023-07-09T09:27:41;35.70;45.60
55121;DHT22;41019;48.512;9.036;2023-07-09T09:30:18;35.90;44.40
55121;DHT22;41019;48.512;9.036;2023-07-09T09:32:48;35.80;44.50
55121;DHT22;41019;48.512;9.036;2023-07-09T09:35:18;36.10;44.30
55121;DHT22;41019;48.512;9.036;2023-07-09T09:37:53;36.30;44.20
55121;DHT22;41019;48.512;9.036;2023-07-09T09:40:21;36.50;44.30
55121;DHT22;41019;48.512;9.036;2023-07-09T09:42:55;36.70;44.50
55121;DHT22;41019;48.512;9.036;2023-07-09T09:45:28;36.90;43.40
55121;DHT22;41019;48.512;9.036;2023-07-09T09:48:00;37.10;42.20
55121;DHT22;41019;48.512;9.036;2023-07-09T09:50:31;37.20;43.70
55121;DHT22;41019;48.512;9.036;2023-07-09T09:52:59;37.40;42.20
55121;DHT22;41019;48.512;9.036;2023-07-09T09:55:29;37.50;43.10
55121;DHT22;41019;48.512;9.036;2023-07-09T09:57:56;37.70;42.40
55121;DHT22;41019;48.512;9.036;2023-07-09T10:00:26;37.90;41.20
55121;DHT22;41019;48.512;9.036;2023-07-09T10:03:01;38.00;42.10
55121;DHT22;41019;48.512;9.036;2023-07-09T10:05:34;38.10;41.10
55121;DHT22;41019;48.512;9.036;2023-07-09T10:08:38;38.10;41.70
55121;DHT22;41019;48.512;9.036;2023-07-09T10:11:18;38.10;39.80
55121;DHT22;41019;48.512;9.036;2023-07-09T10:13:47;38.20;40.20
55121;DHT22;41019;48.512;9.036;2023-07-09T10:16:26;38.30;41.30
55121;DHT22;41019;48.512;9.036;2023-07-09T10:19:09;38.60;40.90
55121;DHT22;41019;48.512;9.036;2023-07-09T10:24:32;38.90;40.60
55121;DHT22;41019;48.512;9.036;2023-07-09T10:27:16;38.80;39.70
55121;DHT22;41019;48.512;9.036;2023-07-09T10:32:41;39.10;39.40
55121;DHT22;41019;48.512;9.036;2023-07-09T10:35:23;39.30;38.70
55121;DHT22;41019;48.512;9.036;2023-07-09T10:40:43;39.10;39.30
55121;DHT22;41019;48.512;9.036;2023-07-09T10:43:28;39.40;40.50
55121;DHT22;41019;48.512;9.036;2023-07-09T10:46:05;39.40;39.70
55121;DHT22;41019;48.512;9.036;2023-07-09T10:48:42;39.40;39.00
55121;DHT22;41019;48.512;9.036;2023-07-09T10:51:22;39.50;40.10
55121;DHT22;41019;48.512;9.036;2023-07-09T10:54:05;39.70;39.70
55121;DHT22;41019;48.512;9.036;2023-07-09T10:56:35;39.90;38.10
55121;DHT22;41019;48.512;9.036;2023-07-09T11:01:47;40.10;39.10
55121;DHT22;41019;48.512;9.036;2023-07-09T11:04:25;40.20;38.40
55121;DHT22;41019;48.512;9.036;2023-07-09T11:06:56;40.10;38.30
55121;DHT22;41019;48.512;9.036;2023-07-09T11:09:35;40.20;38.10
55121;DHT22;41019;48.512;9.036;2023-07-09T11:15:04;40.40;38.40
55121;DHT22;41019;48.512;9.036;2023-07-09T11:17:29;40.50;37.30
55121;DHT22;41019;48.512;9.036;2023-07-09T11:20:00;40.60;37.70
55121;DHT22;41019;48.512;9.036;2023-07-09T11:22:40;40.60;35.90
55121;DHT22;41019;48.512;9.036;2023-07-09T11:25:12;40.60;37.30
55121;DHT22;41019;48.512;9.036;2023-07-09T11:27:54;40.60;36.50
55121;DHT22;41019;48.512;9.036;2023-07-09T11:30:28;40.40;37.00
55121;DHT22;41019;48.512;9.036;2023-07-09T11:33:03;40.20;37.20
55121;DHT22;41019;48.512;9.036;2023-07-09T11:35:49;40.20;36.20
55121;DHT22;41019;48.512;9.036;2023-07-09T11:38:21;40.50;37.80
55121;DHT22;41019;48.512;9.036;2023-07-09T11:40:53;40.60;36.90
55121;DHT22;41019;48.512;9.036;2023-07-09T11:43:34;40.90;36.70
55121;DHT22;41019;48.512;9.036;2023-07-09T11:46:11;40.80;36.40
55121;DHT22;41019;48.512;9.036;2023-07-09T11:48:41;40.50;37.20
55121;DHT22;41019;48.512;9.036;2023-07-09T11:51:16;40.80;37.20
55121;DHT22;41019;48.512;9.036;2023-07-09T11:53:54;41.00;36.30
55121;DHT22;41019;48.512;9.036;2023-07-09T11:56:24;41.30;36.50
55121;DHT22;41019;48.512;9.036;2023-07-09T11:58:55;41.50;35.40
55121;DHT22;41019;48.512;9.036;2023-07-09T12:01:38;41.60;35.90
55121;DHT22;41019;48.512;9.036;2023-07-09T12:04:14;41.70;35.20
55121;DHT22;41019;48.512;9.036;2023-07-09T12:06:42;41.70;34.70
55121;DHT22;41019;48.512;9.036;2023-07-09T12:09:20;41.80;34.60
55121;DHT22;41019;48.512;9.036;2023-07-09T12:11:49;41.90;33.70
55121;DHT22;41019;48.512;9.036;2023-07-09T12:14:21;41.60;33.50
55121;DHT22;41019;48.512;9.036;2023-07-09T12:16:49;41.10;32.30
55121;DHT22;41019;48.512;9.036;2023-07-09T12:19:21;41.20;32.40
55121;DHT22;41019;48.512;9.036;2023-07-09T12:21:53;41.40;32.40
55121;DHT22;41019;48.512;9.036;2023-07-09T12:24:24;41.60;33.20
55121;DHT22;41019;48.512;9.036;2023-07-09T12:26:58;41.60;32.70
55121;DHT22;41019;48.512;9.036;2023-07-09T12:29:26;41.30;32.30
55121;DHT22;41019;48.512;9.036;2023-07-09T12:31:52;41.30;33.10
55121;DHT22;41019;48.512;9.036;2023-07-09T12:34:18;41.50;33.10
55121;DHT22;41019;48.512;9.036;2023-07-09T12:36:48;41.60;32.40
55121;DHT22;41019;48.512;9.036;2023-07-09T12:39:21;41.60;32.60
55121;DHT22;41019;48.512;9.036;2023-07-09T12:41:49;41.70;33.50
55121;DHT22;41019;48.512;9.036;2023-07-09T12:44:18;41.80;33.30
55121;DHT22;41019;48.512;9.036;2023-07-09T12:46:47;41.90;33.70
55121;DHT22;41019;48.512;9.036;2023-07-09T12:49:25;42.10;33.10
55121;DHT22;41019;48.512;9.036;2023-07-09T12:51:56;42.30;32.20
55121;DHT22;41019;48.512;9.036;2023-07-09T12:54:23;42.40;31.30
55121;DHT22;41019;48.512;9.036;2023-07-09T12:56:54;42.40;31.30
55121;DHT22;41019;48.512;9.036;2023-07-09T12:59:24;42.30;31.60
55121;DHT22;41019;48.512;9.036;2023-07-09T13:02:23;42.30;32.40
55121;DHT22;41019;48.512;9.036;2023-07-09T13:04:57;42.50;32.80
55121;DHT22;41019;48.512;9.036;2023-07-09T13:09:51;42.60;33.10
55121;DHT22;41019;48.512;9.036;2023-07-09T13:12:18;42.60;32.20
55121;DHT22;41019;48.512;9.036;2023-07-09T13:14:53;42.60;32.10
55121;DHT22;41019;48.512;9.036;2023-07-09T13:17:20;42.50;33.10
55121;DHT22;41019;48.512;9.036;2023-07-09T13:19:46;42.30;32.60
55121;DHT22;41019;48.512;9.036;2023-07-09T13:22:17;42.00;32.20
55121;DHT22;41019;48.512;9.036;2023-07-09T13:24:44;41.90;32.60
55121;DHT22;41019;48.512;9.036;2023-07-09T13:27:12;41.80;32.10
55121;DHT22;41019;48.512;9.036;2023-07-09T13:29:40;41.70;32.80
55121;DHT22;41019;48.512;9.036;2023-07-09T13:32:12;41.80;32.90
55121;DHT22;41019;48.512;9.036;2023-07-09T13:34:39;41.90;32.60
55121;DHT22;41019;48.512;9.036;2023-07-09T13:37:12;41.80;32.50
55121;DHT22;41019;48.512;9.036;2023-07-09T13:39:38;41.70;32.50
55121;DHT22;41019;48.512;9.036;2023-07-09T13:42:12;41.60;32.00
55121;DHT22;41019;48.512;9.036;2023-07-09T13:44:40;41.60;33.60
55121;DHT22;41019;48.512;9.036;2023-07-09T13:47:16;41.60;33.20
55121;DHT22;41019;48.512;9.036;2023-07-09T13:49:44;41.70;32.70
55121;DHT22;41019;48.512;9.036;2023-07-09T13:52:18;41.80;33.80
55121;DHT22;41019;48.512;9.036;2023-07-09T13:54:45;41.80;33.90
55121;DHT22;41019;48.512;9.036;2023-07-09T13:57:17;41.80;32.80
55121;DHT22;41019;48.512;9.036;2023-07-09T13:59:43;41.90;32.90
55121;DHT22;41019;48.512;9.036;2023-07-09T14:02:31;42.10;33.00
55121;DHT22;41019;48.512;9.036;2023-07-09T14:05:02;42.20;32.80
55121;DHT22;41019;48.512;9.036;2023-07-09T14:07:31;42.30;33.00
55121;DHT22;41019;48.512;9.036;2023-07-09T14:09:58;42.40;32.10
55121;DHT22;41019;48.512;9.036;2023-07-09T14:12:26;42.40;32.20
55121;DHT22;41019;48.512;9.036;2023-07-09T14:14:53;42.40;31.50
55121;DHT22;41019;48.512;9.036;2023-07-09T14:17:20;42.10;32.40
55121;DHT22;41019;48.512;9.036;2023-07-09T14:19:48;42.20;33.10
55121;DHT22;41019;48.512;9.036;2023-07-09T14:22:23;42.30;33.40
55121;DHT22;41019;48.512;9.036;2023-07-09T14:24:51;42.30;32.60
55121;DHT22;41019;48.512;9.036;2023-07-09T14:27:17;42.10;32.90
55121;DHT22;41019;48.512;9.036;2023-07-09T14:29:44;42.10;32.10
55121;DHT22;41019;48.512;9.036;2023-07-09T14:32:31;42.00;31.90
55121;DHT22;41019;48.512;9.036;2023-07-09T14:34:59;42.00;32.30
55121;DHT22;41019;48.512;9.036;2023-07-09T14:37:25;42.10;32.20
55121;DHT22;41019;48.512;9.036;2023-07-09T14:39:52;41.90;31.90
55121;DHT22;41019;48.512;9.036;2023-07-09T14:42:19;41.80;32.50
55121;DHT22;41019;48.512;9.036;2023-07-09T14:44:44;41.90;32.50
55121;DHT22;41019;48.512;9.036;2023-07-09T14:47:21;41.80;32.30
55121;DHT22;41019;48.512;9.036;2023-07-09T14:49:48;41.80;32.20
55121;DHT22;41019;48.512;9.036;2023-07-09T14:52:16;41.80;31.90
55121;DHT22;41019;48.512;9.036;2023-07-09T14:54:44;41.50;31.70
55121;DHT22;41019;48.512;9.036;2023-07-09T14:57:25;41.40;32.00
55121;DHT22;41019;48.512;9.036;2023-07-09T14:59:53;41.30;32.60
55121;DHT22;41019;48.512;9.036;2023-07-09T15:04:49;41.00;33.50
55121;DHT22;41019;48.512;9.036;2023-07-09T15:07:15;40.70;33.30
55121;DHT22;41019;48.512;9.036;2023-07-09T15:09:41;40.50;33.50
55121;DHT22;41019;48.512;9.036;2023-07-09T15:12:17;40.20;32.80
55121;DHT22;41019;48.512;9.036;2023-07-09T15:14:44;40.20;32.50
55121;DHT22;41019;48.512;9.036;2023-07-09T15:17:12;40.10;33.10
55121;DHT22;41019;48.512;9.036;2023-07-09T15:19:39;40.10;33.60
55121;DHT22;41019;48.512;9.036;2023-07-09T15:22:05;40.20;33.10
55121;DHT22;41019;48.512;9.036;2023-07-09T15:24:37;40.30;32.70
55121;DHT22;41019;48.512;9.036;2023-07-09T15:27:03;40.40;32.30
55121;DHT22;41019;48.512;9.036;2023-07-09T15:29:30;40.50;32.90
55121;DHT22;41019;48.512;9.036;2023-07-09T15:31:58;40.60;32.90
55121;DHT22;41019;48.512;9.036;2023-07-09T15:34:24;40.60;32.00
55121;DHT22;41019;48.512;9.036;2023-07-09T15:36:52;40.50;32.50
55121;DHT22;41019;48.512;9.036;2023-07-09T15:39:19;40.40;33.10
55121;DHT22;41019;48.512;9.036;2023-07-09T15:41:46;40.40;33.10
55121;DHT22;41019;48.512;9.036;2023-07-09T15:44:14;40.30;33.00
55121;DHT22;41019;48.512;9.036;2023-07-09T15:46:47;40.20;33.40
55121;DHT22;41019;48.512;9.036;2023-07-09T15:49:14;40.10;33.30
55121;DHT22;41019;48.512;9.036;2023-07-09T15:51:40;40.00;33.20
55121;DHT22;41019;48.512;9.036;2023-07-09T15:54:18;39.80;32.20
55121;DHT22;41019;48.512;9.036;2023-07-09T15:56:46;39.60;32.70
55121;DHT22;41019;48.512;9.036;2023-07-09T15:59:34;39.60;32.90
55121;DHT22;41019;48.512;9.036;2023-07-09T16:02:02;39.20;36.20
55121;DHT22;41019;48.512;9.036;2023-07-09T16:04:34;39.00;35.00
55121;DHT22;41019;48.512;9.036;2023-07-09T16:07:00;38.70;36.30
55121;DHT22;41019;48.512;9.036;2023-07-09T16:09:26;38.40;37.90
55121;DHT22;41019;48.512;9.036;2023-07-09T16:11:53;38.20;37.30
55121;DHT22;41019;48.512;9.036;2023-07-09T16:14:21;37.80;38.00